map of NKC home
NKC - Airport
Location
City:  Nouakchott, Mauritania
Name:Nouakchott-Oumtounsy International Airport
ICAO:GQNO
IATA:NKC

Details
Type:Airport (Aerodrome, Airfield)
Use:Public/Civil, International (customs port of entry)
Latitude:18°18'36"N (18.309881)
Longitude:15°58'11"W (-15.969630)
Elevation:10 ft (3 m)
Variation:5.93°W (WMM2015 magnetic declination)
0.11° annual change
Runways:2
Longest:11155 × 197 ft (3400 × 60 m), paved

Time
Time Zone:UTC+0
Local Time:

Weather
METAR:GQNO 150000Z 35012KT CAVOK 19/14 Q1013 NOSIG
TAF:GQNO 142300Z 1500/1606 34010KT 8000 NSC
TEMPO 1509/1514 04008KT

Related Locations
Nearby:
Farthest:BMY: 12331 mi / 19844 km
Waala [Belep Islands Airport], Īle Art, Belep Islands, NC

Find:

   beyond  
but within

Other Information
Maps:
NOTAMs:
Links:
Sources:

  
  • flag of Mauritania
  

Sectional Chart

Flight Planning
at skyvector.com

Satellite Image

Google Maps Satellite view

 

Copyright © 2004-2018 Karl L. Swartz. All rights reserved.
The Great Circle Mapper name and logo are trademarks of the Great Circle Mapper.
All other trademarks mentioned herein belong to their respective owners.
Please see credits for attibutions and further copyright information.

  Follow gcmap on Facebook Follow gcmap on Twitter Follow gcmap on Google+ GCmap on LinkedIn

hCard Microformat

Geo Microformat